createdAt,value
2023-05-15T00:01:24.611Z,99563.59
2023-05-15T00:03:52.298Z,99556.00
2023-05-15T00:06:19.993Z,99555.50
2023-05-15T00:08:48.032Z,99552.28
2023-05-15T00:11:14.717Z,99545.97
2023-05-15T00:13:41.373Z,99552.53
2023-05-15T00:16:10.268Z,99543.88
2023-05-15T00:18:37.095Z,99545.16
2023-05-15T00:21:04.926Z,99536.44
2023-05-15T00:23:31.555Z,99529.09
2023-05-15T00:25:58.220Z,99528.72
2023-05-15T00:28:25.091Z,99537.13
2023-05-15T00:30:52.348Z,99542.34
2023-05-15T00:33:20.126Z,99529.50
2023-05-15T00:35:48.107Z,99531.56
2023-05-15T00:38:14.700Z,99540.75
2023-05-15T00:40:44.082Z,99533.81
2023-05-15T00:43:12.296Z,99525.69
2023-05-15T00:45:40.829Z,99521.34
2023-05-15T00:48:09.856Z,99507.72
2023-05-15T00:50:37.041Z,99510.13
2023-05-15T00:53:05.299Z,99509.75
2023-05-15T00:55:33.410Z,99513.22
2023-05-15T00:58:01.544Z,99510.13
2023-05-15T01:00:28.615Z,99501.47
2023-05-15T01:02:55.433Z,99495.84
2023-05-15T01:05:22.260Z,99491.31
2023-05-15T01:08:27.723Z,99498.59
2023-05-15T01:10:55.575Z,99499.03
2023-05-15T01:13:23.175Z,99497.00
2023-05-15T01:15:50.335Z,99497.00
2023-05-15T01:18:17.724Z,99492.78
2023-05-15T01:21:11.807Z,99499.47
2023-05-15T01:24:17.748Z,99498.16
2023-05-15T01:27:03.095Z,99509.75
2023-05-15T01:29:51.609Z,99501.50
2023-05-15T01:32:32.278Z,99501.34
2023-05-15T01:35:13.420Z,99500.31
2023-05-15T01:37:50.099Z,99495.50
2023-05-15T01:40:19.776Z,99496.09
2023-05-15T01:43:03.778Z,99491.38
2023-05-15T01:45:33.496Z,99482.84
2023-05-15T01:48:01.933Z,99489.69
2023-05-15T01:50:33.893Z,99479.63
2023-05-15T01:53:02.209Z,99476.63
2023-05-15T01:55:30.245Z,99468.59
2023-05-15T01:58:01.145Z,99468.78
2023-05-15T02:00:29.821Z,99460.34
2023-05-15T02:02:57.793Z,99458.53
2023-05-15T02:05:27.122Z,99454.09
2023-05-15T02:07:54.893Z,99449.25
2023-05-15T02:10:22.967Z,99448.28
2023-05-15T02:12:50.463Z,99450.66
2023-05-15T02:15:18.882Z,99452.19
2023-05-15T02:17:45.606Z,99457.38
2023-05-15T02:20:13.708Z,99457.88
2023-05-15T02:22:40.332Z,99449.69
2023-05-15T02:25:08.444Z,99448.66
2023-05-15T02:27:45.760Z,99458.28
2023-05-15T02:30:16.230Z,99449.97
2023-05-15T02:33:18.257Z,99447.06
2023-05-15T02:36:14.188Z,99443.63
2023-05-15T02:38:53.706Z,99437.59
2023-05-15T02:41:23.447Z,99428.06
2023-05-15T02:43:52.717Z,99419.25
2023-05-15T02:46:21.645Z,99428.38
2023-05-15T02:48:48.879Z,99421.94
2023-05-15T02:51:15.749Z,99431.97
2023-05-15T02:53:43.155Z,99418.13
2023-05-15T02:56:10.129Z,99424.34
2023-05-15T02:58:39.453Z,99424.94
2023-05-15T03:01:06.341Z,99425.53
2023-05-15T03:03:33.136Z,99427.16
2023-05-15T03:06:02.836Z,99425.16
2023-05-15T03:08:29.525Z,99418.75
2023-05-15T03:10:56.232Z,99419.97
2023-05-15T03:13:22.911Z,99420.16
2023-05-15T03:15:50.921Z,99420.97
2023-05-15T03:18:19.059Z,99415.13
2023-05-15T03:20:48.553Z,99409.13
2023-05-15T03:23:15.422Z,99410.53
2023-05-15T03:25:42.018Z,99416.53
2023-05-15T03:28:10.112Z,99418.34
2023-05-15T03:30:36.698Z,99417.75
2023-05-15T03:33:07.715Z,99427.56
2023-05-15T03:35:34.381Z,99415.13
2023-05-15T03:38:01.412Z,99391.28
2023-05-15T03:40:28.404Z,99382.59
2023-05-15T03:42:55.098Z,99392.66
2023-05-15T03:45:21.737Z,99391.25
2023-05-15T03:47:49.620Z,99385.84
2023-05-15T03:50:16.527Z,99395.69
2023-05-15T03:52:43.353Z,99391.88
2023-05-15T03:55:11.311Z,99396.66
2023-05-15T03:57:38.024Z,99396.97
2023-05-15T04:00:11.247Z,99401.78
2023-05-15T04:02:38.060Z,99365.06
2023-05-15T04:05:05.523Z,99362.06
2023-05-15T04:07:33.690Z,99372.50
2023-05-15T04:10:04.127Z,99375.97
2023-05-15T04:12:34.809Z,99375.47
2023-05-15T04:15:18.834Z,99365.88
2023-05-15T04:17:48.278Z,99350.72
2023-05-15T04:20:16.462Z,99361.94
2023-05-15T04:22:45.153Z,99375.19
2023-05-15T04:25:14.638Z,99367.84
2023-05-15T04:27:43.220Z,99347.06
2023-05-15T04:30:11.409Z,99350.66
2023-05-15T04:32:38.679Z,99348.78
2023-05-15T04:35:10.199Z,99359.75
2023-05-15T04:37:37.670Z,99355.09
2023-05-15T04:40:07.672Z,99352.00
2023-05-15T04:42:37.589Z,99356.72
2023-05-15T04:45:05.913Z,99356.63
2023-05-15T04:47:32.666Z,99353.03
2023-05-15T04:49:59.339Z,99370.03
2023-05-15T04:52:25.954Z,99365.91
2023-05-15T04:54:55.351Z,99364.53
2023-05-15T04:57:23.454Z,99381.50
2023-05-15T04:59:50.122Z,99379.31
2023-05-15T05:02:19.876Z,99391.22
2023-05-15T05:04:46.520Z,99382.25
2023-05-15T05:07:13.133Z,99390.44
2023-05-15T05:09:40.464Z,99398.28
2023-05-15T05:12:09.935Z,99407.59
2023-05-15T05:14:36.915Z,99407.13
2023-05-15T05:17:05.502Z,99415.13
2023-05-15T05:19:32.100Z,99415.13
2023-05-15T05:22:02.494Z,99419.94
2023-05-15T05:24:29.723Z,99421.06
2023-05-15T05:26:58.271Z,99429.09
2023-05-15T05:29:26.117Z,99429.72
2023-05-15T05:31:53.635Z,99418.66
2023-05-15T05:34:20.392Z,99428.09
2023-05-15T05:36:47.226Z,99426.81
2023-05-15T05:39:14.308Z,99428.06
2023-05-15T05:41:40.948Z,99437.06
2023-05-15T05:44:07.947Z,99431.78
2023-05-15T05:46:36.082Z,99432.28
2023-05-15T05:49:02.726Z,99431.13
2023-05-15T05:51:29.565Z,99427.06
2023-05-15T05:53:56.181Z,99426.59
2023-05-15T05:56:23.665Z,99421.28
2023-05-15T05:58:50.294Z,99421.84
2023-05-15T06:01:17.005Z,99425.59
2023-05-15T06:03:43.922Z,99410.72
2023-05-15T06:06:10.858Z,99414.81
2023-05-15T06:08:37.497Z,99425.47
2023-05-15T06:11:04.333Z,99409.47
2023-05-15T06:13:31.018Z,99412.31
2023-05-15T06:15:57.742Z,99423.78
2023-05-15T06:18:24.513Z,99418.03
2023-05-15T06:20:51.809Z,99436.28
2023-05-15T06:23:20.292Z,99429.31
2023-05-15T06:25:48.487Z,99429.91
2023-05-15T06:28:15.067Z,99420.69
2023-05-15T06:30:41.703Z,99426.38
2023-05-15T06:33:08.472Z,99422.66
2023-05-15T06:35:35.704Z,99417.53
2023-05-15T06:38:02.479Z,99424.53
2023-05-15T06:40:29.284Z,99426.47
2023-05-15T06:42:56.592Z,99427.41
2023-05-15T06:45:23.452Z,99420.25
2023-05-15T06:47:50.207Z,99424.78
2023-05-15T06:50:16.891Z,99423.53
2023-05-15T06:52:44.585Z,99424.59
2023-05-15T06:55:12.557Z,99415.47
2023-05-15T06:57:39.184Z,99418.63
2023-05-15T07:00:07.742Z,99412.69
2023-05-15T07:02:34.507Z,99418.47
2023-05-15T07:05:02.598Z,99410.38
2023-05-15T07:07:29.218Z,99418.13
2023-05-15T07:09:55.799Z,99414.88
2023-05-15T07:12:23.164Z,99412.00
2023-05-15T07:14:49.764Z,99413.78
2023-05-15T07:17:18.838Z,99404.50
2023-05-15T07:19:45.570Z,99402.59
2023-05-15T07:22:12.183Z,99395.50
2023-05-15T07:24:40.694Z,99396.13
2023-05-15T07:27:07.352Z,99396.31
2023-05-15T07:29:33.945Z,99398.19
2023-05-15T07:32:01.924Z,99392.00
2023-05-15T07:34:28.628Z,99399.25
2023-05-15T07:36:55.240Z,99388.00
2023-05-15T07:39:21.910Z,99385.78
2023-05-15T07:41:49.467Z,99386.47
2023-05-15T07:44:16.597Z,99382.84
2023-05-15T07:46:43.382Z,99383.06
2023-05-15T07:49:10.041Z,99389.53
2023-05-15T07:51:36.667Z,99386.09
2023-05-15T07:54:05.634Z,99378.78
2023-05-15T07:56:33.230Z,99381.16
2023-05-15T07:59:00.978Z,99386.16
2023-05-15T08:01:28.304Z,99379.91
2023-05-15T08:03:56.678Z,99380.94
2023-05-15T08:06:23.440Z,99374.94
2023-05-15T08:08:50.036Z,99378.66
2023-05-15T08:11:16.674Z,99380.34
2023-05-15T08:13:43.345Z,99377.31
2023-05-15T08:16:10.143Z,99375.44
2023-05-15T08:18:37.039Z,99368.50
2023-05-15T08:21:04.734Z,99366.28
2023-05-15T08:23:32.574Z,99364.72
2023-05-15T08:26:00.634Z,99361.66
2023-05-15T08:28:28.430Z,99358.56
2023-05-15T08:30:55.086Z,99353.03
2023-05-15T08:33:21.749Z,99353.94
2023-05-15T08:35:48.485Z,99350.53
2023-05-15T08:38:15.154Z,99351.19
2023-05-15T08:40:46.887Z,99350.69
2023-05-15T08:43:18.030Z,99342.53
2023-05-15T08:45:45.755Z,99337.59
2023-05-15T08:48:19.703Z,99341.97
2023-05-15T08:50:47.537Z,99340.97
2023-05-15T08:53:14.675Z,99337.91
2023-05-15T08:55:43.671Z,99334.81
2023-05-15T08:58:10.799Z,99340.44
2023-05-15T09:00:37.951Z,99334.25
2023-05-15T09:03:05.077Z,99336.34
2023-05-15T09:05:32.144Z,99330.91
2023-05-15T09:08:03.932Z,99333.00
2023-05-15T09:10:31.813Z,99334.28
2023-05-15T09:13:01.747Z,99326.84
2023-05-15T09:15:30.155Z,99328.44
2023-05-15T09:17:56.893Z,99323.00
2023-05-15T09:20:32.344Z,99323.75
2023-05-15T09:23:02.456Z,99323.41
2023-05-15T09:25:40.129Z,99319.47
2023-05-15T09:28:08.857Z,99320.84
2023-05-15T09:30:38.525Z,99311.06
2023-05-15T09:33:05.219Z,99305.31
2023-05-15T09:35:39.252Z,99306.63
2023-05-15T09:38:12.207Z,99310.13
2023-05-15T09:40:44.647Z,99302.31
2023-05-15T09:43:14.330Z,99293.38
2023-05-15T09:45:41.090Z,99294.63
2023-05-15T09:48:08.345Z,99293.53
2023-05-15T09:50:36.865Z,99283.75
2023-05-15T09:53:04.084Z,99290.19
2023-05-15T09:55:36.164Z,99291.03
2023-05-15T09:58:16.130Z,99282.41
2023-05-15T10:00:47.674Z,99269.53
2023-05-15T10:03:16.842Z,99273.13
2023-05-15T10:05:44.417Z,99266.84
2023-05-15T10:08:12.680Z,99264.91
2023-05-15T10:10:39.630Z,99256.63
2023-05-15T10:13:08.478Z,99255.47
2023-05-15T10:15:35.746Z,99251.13
2023-05-15T10:18:04.748Z,99246.81
2023-05-15T10:20:33.245Z,99230.63
2023-05-15T10:23:04.064Z,99225.47
2023-05-15T10:25:51.886Z,99230.16
2023-05-15T10:28:19.809Z,99227.41
2023-05-15T10:30:46.952Z,99225.44
2023-05-15T10:33:14.795Z,99217.59
2023-05-15T10:35:43.296Z,99214.84
2023-05-15T10:38:12.750Z,99197.88
2023-05-15T10:40:41.878Z,99194.31
2023-05-15T10:43:10.285Z,99183.63
2023-05-15T10:45:37.172Z,99185.63
2023-05-15T10:48:07.686Z,99165.84
2023-05-15T10:50:37.795Z,99161.06
2023-05-15T10:53:04.547Z,99165.81
2023-05-15T10:55:31.347Z,99179.25
2023-05-15T10:57:59.217Z,99163.03
2023-05-15T11:00:27.929Z,99159.44
2023-05-15T11:02:57.265Z,99160.22
2023-05-15T11:05:24.801Z,99151.50
2023-05-15T11:08:18.472Z,99155.47
2023-05-15T11:10:45.191Z,99160.25
2023-05-15T11:13:12.211Z,99146.81
2023-05-15T11:15:46.797Z,99157.09
2023-05-15T11:18:14.025Z,99154.28
2023-05-15T11:20:49.688Z,99155.06
2023-05-15T11:23:16.313Z,99156.66
2023-05-15T11:25:44.346Z,99134.06
2023-05-15T11:28:21.933Z,99138.81
2023-05-15T11:30:51.830Z,99143.59
2023-05-15T11:33:20.914Z,99148.00
2023-05-15T11:35:48.259Z,99138.09
2023-05-15T11:38:27.094Z,99137.31
2023-05-15T11:40:57.927Z,99131.72
2023-05-15T11:43:31.770Z,99131.72
2023-05-15T11:46:05.010Z,99125.03
2023-05-15T11:48:34.139Z,99127.84
2023-05-15T11:51:05.693Z,99131.03
2023-05-15T11:53:33.459Z,99123.09
2023-05-15T11:56:02.157Z,99132.19
2023-05-15T11:58:29.987Z,99131.78
2023-05-15T12:00:58.028Z,99135.69
2023-05-15T12:03:27.317Z,99146.72
2023-05-15T12:05:59.556Z,99171.75
2023-05-15T12:08:31.936Z,99177.66
2023-05-15T12:10:59.256Z,99180.50
2023-05-15T12:13:25.899Z,99173.16
2023-05-15T12:15:55.555Z,99191.16
2023-05-15T12:18:22.721Z,99196.66
2023-05-15T12:20:52.717Z,99201.28
2023-05-15T12:23:21.988Z,99217.69
2023-05-15T12:25:52.813Z,99231.69
2023-05-15T12:28:21.052Z,99233.97
2023-05-15T12:30:48.046Z,99248.66
2023-05-15T12:33:15.039Z,99238.66
2023-05-15T12:35:45.277Z,99217.50
2023-05-15T12:38:16.481Z,99204.66
2023-05-15T12:40:53.567Z,99203.50
2023-05-15T12:43:24.869Z,99197.69
2023-05-15T12:45:53.020Z,99189.84
2023-05-15T12:48:21.248Z,99182.66
2023-05-15T12:50:55.661Z,99196.22
2023-05-15T12:53:23.550Z,99181.19
2023-05-15T12:55:52.527Z,99188.16
2023-05-15T12:58:21.321Z,99192.19
2023-05-15T13:00:48.847Z,99204.03
2023-05-15T13:03:16.000Z,99198.34
2023-05-15T13:05:44.360Z,99202.94
2023-05-15T13:08:15.697Z,99192.41
2023-05-15T13:10:42.387Z,99193.69
2023-05-15T13:13:10.465Z,99203.34
2023-05-15T13:15:44.782Z,99190.13
2023-05-15T13:18:11.305Z,99190.03
2023-05-15T13:20:42.950Z,99206.44
2023-05-15T13:23:11.319Z,99197.78
2023-05-15T13:25:38.036Z,99200.09
2023-05-15T13:28:08.372Z,99200.91
2023-05-15T13:30:36.718Z,99193.75
2023-05-15T13:33:03.943Z,99195.34
2023-05-15T13:35:31.020Z,99196.03
2023-05-15T13:37:59.003Z,99192.03
2023-05-15T13:40:27.332Z,99188.19
2023-05-15T13:42:54.114Z,99193.81
2023-05-15T13:45:20.842Z,99185.59
2023-05-15T13:47:47.548Z,99181.44
2023-05-15T13:50:15.870Z,99183.84
2023-05-15T13:52:44.628Z,99182.34
2023-05-15T13:55:11.520Z,99179.97
2023-05-15T13:57:39.621Z,99180.75
2023-05-15T14:00:07.857Z,99170.47
2023-05-15T14:02:34.638Z,99167.66
2023-05-15T14:05:02.712Z,99166.34
2023-05-15T14:07:29.338Z,99156.88
2023-05-15T14:09:56.053Z,99160.06
2023-05-15T14:12:22.728Z,99159.19
2023-05-15T14:14:50.205Z,99149.53
2023-05-15T14:17:17.042Z,99146.31
2023-05-15T14:19:44.151Z,99148.91
2023-05-15T14:22:11.188Z,99144.63
2023-05-15T14:24:37.823Z,99142.34
2023-05-15T14:27:06.117Z,99136.16
2023-05-15T14:29:32.763Z,99131.59
2023-05-15T14:32:00.726Z,99140.34
2023-05-15T14:34:27.476Z,99127.13
2023-05-15T14:36:55.428Z,99121.28
2023-05-15T14:39:22.110Z,99116.44
2023-05-15T14:41:50.726Z,99118.16
2023-05-15T14:44:17.668Z,99112.97
2023-05-15T14:46:44.504Z,99109.72
2023-05-15T14:49:11.595Z,99110.97
2023-05-15T14:51:38.219Z,99103.09
2023-05-15T14:54:05.179Z,99105.41
2023-05-15T14:56:32.166Z,99099.59
2023-05-15T14:58:58.802Z,99094.66
2023-05-15T15:01:25.770Z,99089.63
2023-05-15T15:03:52.886Z,99081.38
2023-05-15T15:06:20.744Z,99078.59
2023-05-15T15:08:47.389Z,99076.25
2023-05-15T15:11:15.382Z,99081.88
2023-05-15T15:13:42.017Z,99076.34
2023-05-15T15:16:09.596Z,99076.72
2023-05-15T15:18:36.356Z,99077.03
2023-05-15T15:21:03.740Z,99077.81
2023-05-15T15:23:30.491Z,99077.78
2023-05-15T15:25:57.179Z,99081.63
2023-05-15T15:28:23.831Z,99082.69
2023-05-15T15:30:50.488Z,99081.44
2023-05-15T15:33:17.090Z,99079.78
2023-05-15T15:35:43.727Z,99075.72
2023-05-15T15:38:11.818Z,99085.16
2023-05-15T15:40:38.447Z,99086.75
2023-05-15T15:43:06.280Z,99089.44
2023-05-15T15:45:32.887Z,99087.41
2023-05-15T15:47:59.741Z,99082.63
2023-05-15T15:50:27.182Z,99084.19
2023-05-15T15:52:54.006Z,99082.91
2023-05-15T15:55:20.714Z,99084.06
2023-05-15T15:57:48.738Z,99084.63
2023-05-15T16:00:17.133Z,99090.03
2023-05-15T16:02:43.939Z,99089.97
2023-05-15T16:05:10.830Z,99085.97
2023-05-15T16:07:37.430Z,99092.19
2023-05-15T16:10:12.581Z,99088.28
2023-05-15T16:12:46.390Z,99086.97
2023-05-15T16:15:23.036Z,99085.78
2023-05-15T16:17:53.500Z,99088.53
2023-05-15T16:20:22.240Z,99085.69
2023-05-15T16:22:48.875Z,99078.53
2023-05-15T16:25:16.896Z,99081.66
2023-05-15T16:27:43.587Z,99071.38
2023-05-15T16:30:11.623Z,99078.44
2023-05-15T16:32:40.225Z,99083.94
2023-05-15T16:35:07.722Z,99079.59
2023-05-15T16:37:34.328Z,99075.25
2023-05-15T16:40:01.055Z,99072.94
2023-05-15T16:42:27.721Z,99072.94
2023-05-15T16:44:55.959Z,99072.19
2023-05-15T16:47:22.635Z,99069.81
2023-05-15T16:49:50.517Z,99066.72
2023-05-15T16:52:17.564Z,99073.03
2023-05-15T16:54:44.170Z,99074.56
2023-05-15T16:57:12.194Z,99078.91
2023-05-15T16:59:38.942Z,99069.16
2023-05-15T17:02:05.621Z,99072.34
2023-05-15T17:04:35.140Z,99066.00
2023-05-15T17:07:01.916Z,99065.16
2023-05-15T17:09:28.588Z,99068.28
2023-05-15T17:11:55.284Z,99073.72
2023-05-15T17:14:24.289Z,99069.75
2023-05-15T17:16:50.913Z,99068.91
2023-05-15T17:19:17.782Z,99064.88
2023-05-15T17:21:45.535Z,99064.47
2023-05-15T17:24:12.272Z,99058.16
2023-05-15T17:26:38.849Z,99058.53
2023-05-15T17:29:07.177Z,99053.72
2023-05-15T17:31:35.421Z,99055.69
2023-05-15T17:34:03.252Z,99056.38
2023-05-15T17:36:29.930Z,99061.09
2023-05-15T17:38:56.560Z,99061.75
2023-05-15T17:41:23.199Z,99059.69
2023-05-15T17:43:49.885Z,99053.50
2023-05-15T17:46:16.687Z,99055.81
2023-05-15T17:48:44.808Z,99054.19
2023-05-15T17:51:12.052Z,99053.38
2023-05-15T17:53:38.738Z,99058.03
2023-05-15T17:56:05.541Z,99058.69
2023-05-15T17:58:32.209Z,99050.38
2023-05-15T18:00:59.328Z,99054.66
2023-05-15T18:03:26.157Z,99049.16
2023-05-15T18:05:52.897Z,99053.06
2023-05-15T18:08:19.546Z,99050.97
2023-05-15T18:10:46.532Z,99051.41
2023-05-15T18:13:14.357Z,99052.94
2023-05-15T18:15:40.973Z,99048.97
2023-05-15T18:18:08.696Z,99051.28
2023-05-15T18:20:35.402Z,99041.06
2023-05-15T18:23:02.000Z,99049.69
2023-05-15T18:25:28.870Z,99046.94
2023-05-15T18:27:55.649Z,99045.28
2023-05-15T18:30:22.332Z,99045.66
2023-05-15T18:32:50.435Z,99048.81
2023-05-15T18:35:18.721Z,99048.69
2023-05-15T18:37:45.360Z,99047.97
2023-05-15T18:40:13.484Z,99047.97
2023-05-15T18:42:40.186Z,99051.06
2023-05-15T18:45:09.122Z,99039.94
2023-05-15T18:47:37.188Z,99048.50
2023-05-15T18:50:04.511Z,99045.66
2023-05-15T18:52:31.335Z,99046.38
2023-05-15T18:54:57.955Z,99049.41
2023-05-15T18:57:24.681Z,99041.53
2023-05-15T18:59:51.276Z,99041.88
2023-05-15T19:02:17.978Z,99044.59
2023-05-15T19:04:44.667Z,99037.81
2023-05-15T19:07:11.315Z,99041.53
2023-05-15T19:09:38.016Z,99035.91
2023-05-15T19:12:05.328Z,99043.72
2023-05-15T19:14:34.064Z,99037.44
2023-05-15T19:17:00.772Z,99035.66
2023-05-15T19:19:28.904Z,99039.56
2023-05-15T19:21:55.507Z,99035.53
2023-05-15T19:24:22.197Z,99034.66
2023-05-15T19:26:48.925Z,99029.88
2023-05-15T19:29:15.600Z,99032.94
2023-05-15T19:31:43.824Z,99035.19
2023-05-15T19:34:10.487Z,99037.13
2023-05-15T19:36:37.161Z,99037.78
2023-05-15T19:39:03.928Z,99033.41
2023-05-15T19:41:30.665Z,99034.66
2023-05-15T19:43:57.371Z,99023.31
2023-05-15T19:46:25.464Z,99021.28
2023-05-15T19:48:54.232Z,99022.38
2023-05-15T19:51:20.823Z,99020.63
2023-05-15T19:53:47.518Z,99010.81
2023-05-15T19:56:14.295Z,99017.13
2023-05-15T19:58:40.968Z,99012.50
2023-05-15T20:01:07.904Z,99012.50
2023-05-15T20:03:34.726Z,99008.56
2023-05-15T20:06:02.578Z,99005.38
2023-05-15T20:08:29.542Z,99002.56
2023-05-15T20:10:56.963Z,99007.59
2023-05-15T20:13:24.067Z,98999.63
2023-05-15T20:15:57.025Z,99002.63
2023-05-15T20:18:25.037Z,99000.75
2023-05-15T20:20:54.729Z,99004.00
2023-05-15T20:23:23.033Z,98996.78
2023-05-15T20:25:50.934Z,98994.72
2023-05-15T20:28:17.948Z,99003.19
2023-05-15T20:30:47.351Z,98998.94
2023-05-15T20:33:14.329Z,98999.41
2023-05-15T20:35:42.750Z,98989.00
2023-05-15T20:38:11.885Z,98995.38
2023-05-15T20:40:39.172Z,98990.59
2023-05-15T20:43:05.870Z,98988.31
2023-05-15T20:45:32.647Z,98987.66
2023-05-15T20:47:59.533Z,98979.44
2023-05-15T20:50:27.165Z,98980.34
2023-05-15T20:52:54.397Z,98979.53
2023-05-15T20:55:21.723Z,98970.78
2023-05-15T20:57:49.282Z,98971.41
2023-05-15T21:00:17.987Z,98972.19
2023-05-15T21:02:46.309Z,98965.22
2023-05-15T21:05:13.023Z,98966.00
2023-05-15T21:07:39.772Z,98965.31
2023-05-15T21:10:08.422Z,98955.97
2023-05-15T21:12:36.541Z,98954.72
2023-05-15T21:15:04.375Z,98950.34
2023-05-15T21:17:31.033Z,98946.50
2023-05-15T21:19:58.590Z,98944.00
2023-05-15T21:22:25.225Z,98944.78
2023-05-15T21:24:52.040Z,98943.56
2023-05-15T21:27:19.096Z,98937.66
2023-05-15T21:29:47.534Z,98932.44
2023-05-15T21:32:15.533Z,98934.47
2023-05-15T21:34:42.171Z,98926.28
2023-05-15T21:37:10.084Z,98928.31
2023-05-15T21:39:36.722Z,98925.03
2023-05-15T21:42:03.579Z,98928.13
2023-05-15T21:44:30.329Z,98933.13
2023-05-15T21:46:57.061Z,98922.66
2023-05-15T21:49:23.778Z,98929.00
2023-05-15T21:51:50.815Z,98928.81
2023-05-15T21:54:17.717Z,98926.75
2023-05-15T21:56:44.403Z,98929.94
2023-05-15T21:59:14.111Z,98923.81
2023-05-15T22:01:41.419Z,98928.63
2023-05-15T22:04:09.650Z,98925.44
2023-05-15T22:06:36.310Z,98927.06
2023-05-15T22:09:03.259Z,98926.63
2023-05-15T22:11:29.868Z,98915.47
2023-05-15T22:13:56.537Z,98898.63
2023-05-15T22:16:23.279Z,98895.84
2023-05-15T22:18:50.002Z,98888.44
2023-05-15T22:21:16.823Z,98873.00
2023-05-15T22:23:44.746Z,98881.28
2023-05-15T22:26:11.596Z,98860.72
2023-05-15T22:28:38.257Z,98871.13
2023-05-15T22:31:05.127Z,98858.66
2023-05-15T22:33:31.855Z,98857.41
2023-05-15T22:35:58.713Z,98856.06
2023-05-15T22:38:26.709Z,98843.28
2023-05-15T22:40:53.505Z,98838.94
2023-05-15T22:43:22.620Z,98846.00
2023-05-15T22:45:49.392Z,98845.94
2023-05-15T22:48:16.077Z,98855.84
2023-05-15T22:50:44.870Z,98835.06
2023-05-15T22:53:11.635Z,98834.88
2023-05-15T22:55:38.256Z,98835.56
2023-05-15T22:58:04.973Z,98838.25
2023-05-15T23:00:31.683Z,98846.28
2023-05-15T23:02:58.488Z,98833.94
2023-05-15T23:05:25.808Z,98825.03
2023-05-15T23:07:52.740Z,98824.34
2023-05-15T23:10:19.700Z,98828.50
2023-05-15T23:12:46.366Z,98827.13
2023-05-15T23:15:13.397Z,98824.41
2023-05-15T23:17:40.068Z,98817.53
2023-05-15T23:20:08.707Z,98818.66
2023-05-15T23:22:35.305Z,98814.00
2023-05-15T23:25:03.077Z,98809.91
2023-05-15T23:27:29.676Z,98816.00
2023-05-15T23:29:56.268Z,98813.22
2023-05-15T23:32:22.904Z,98808.56
2023-05-15T23:34:49.517Z,98814.53
2023-05-15T23:37:17.893Z,98808.69
2023-05-15T23:39:44.488Z,98815.22
2023-05-15T23:42:13.579Z,98806.81
2023-05-15T23:44:40.385Z,98819.34
2023-05-15T23:47:08.493Z,98809.66
2023-05-15T23:49:37.352Z,98813.03
2023-05-15T23:52:05.374Z,98811.06
2023-05-15T23:54:32.063Z,98813.00
2023-05-15T23:56:58.715Z,98807.72
2023-05-15T23:59:25.603Z,98801.94
